createdAt,value
2023-04-15T00:01:13.699Z,102452.72
2023-04-15T00:03:41.514Z,102456.25
2023-04-15T00:06:09.850Z,102455.50
2023-04-15T00:08:37.859Z,102456.47
2023-04-15T00:11:06.058Z,102454.72
2023-04-15T00:13:36.889Z,102447.72
2023-04-15T00:16:04.576Z,102457.34
2023-04-15T00:18:32.784Z,102455.59
2023-04-15T00:21:00.821Z,102452.22
2023-04-15T00:23:29.121Z,102465.34
2023-04-15T00:25:57.274Z,102460.09
2023-04-15T00:28:25.166Z,102452.22
2023-04-15T00:30:53.192Z,102453.19
2023-04-15T00:33:21.039Z,102448.78
2023-04-15T00:35:48.706Z,102460.16
2023-04-15T00:38:16.363Z,102454.13
2023-04-15T00:40:43.853Z,102460.28
2023-04-15T00:43:11.321Z,102465.47
2023-04-15T00:45:39.025Z,102453.34
2023-04-15T00:48:06.916Z,102461.16
2023-04-15T00:50:34.648Z,102454.13
2023-04-15T00:53:02.208Z,102456.75
2023-04-15T00:55:29.703Z,102456.75
2023-04-15T00:57:58.044Z,102458.59
2023-04-15T01:00:25.720Z,102449.19
2023-04-15T01:02:53.276Z,102457.88
2023-04-15T01:05:20.971Z,102457.84
2023-04-15T01:07:48.860Z,102456.19
2023-04-15T01:10:16.507Z,102459.69
2023-04-15T01:12:44.650Z,102460.50
2023-04-15T01:15:12.411Z,102454.50
2023-04-15T01:17:40.199Z,102458.75
2023-04-15T01:20:10.607Z,102458.75
2023-04-15T01:22:38.576Z,102466.59
2023-04-15T01:25:11.825Z,102457.06
2023-04-15T01:27:42.333Z,102461.41
2023-04-15T01:30:10.679Z,102462.28
2023-04-15T01:32:38.966Z,102457.00
2023-04-15T01:35:07.884Z,102458.81
2023-04-15T01:37:35.548Z,102458.75
2023-04-15T01:40:03.501Z,102451.88
2023-04-15T01:42:31.550Z,102458.88
2023-04-15T01:44:59.008Z,102467.53
2023-04-15T01:47:27.134Z,102464.88
2023-04-15T01:49:55.005Z,102467.47
2023-04-15T01:52:22.712Z,102468.41
2023-04-15T01:54:50.814Z,102463.19
2023-04-15T01:57:18.484Z,102466.75
2023-04-15T01:59:46.090Z,102467.59
2023-04-15T02:02:13.933Z,102471.00
2023-04-15T02:04:41.703Z,102470.97
2023-04-15T02:07:09.436Z,102471.09
2023-04-15T02:09:37.189Z,102469.22
2023-04-15T02:12:05.954Z,102470.97
2023-04-15T02:14:33.429Z,102472.78
2023-04-15T02:17:07.266Z,102467.47
2023-04-15T02:19:35.722Z,102468.38
2023-04-15T02:22:03.675Z,102473.59
2023-04-15T02:24:31.328Z,102470.09
2023-04-15T02:26:59.040Z,102480.56
2023-04-15T02:29:26.855Z,102474.47
2023-04-15T02:31:54.502Z,102480.47
2023-04-15T02:34:22.141Z,102476.16
2023-04-15T02:36:49.828Z,102477.91
2023-04-15T02:39:18.703Z,102480.53
2023-04-15T02:41:51.869Z,102477.94
2023-04-15T02:44:20.660Z,102472.66
2023-04-15T02:46:50.971Z,102480.50
2023-04-15T02:49:18.968Z,102473.56
2023-04-15T02:51:49.887Z,102472.66
2023-04-15T02:54:20.345Z,102473.50
2023-04-15T02:56:48.149Z,102471.72
2023-04-15T02:59:15.687Z,102472.66
2023-04-15T03:01:43.789Z,102474.25
2023-04-15T03:04:11.847Z,102475.97
2023-04-15T03:06:39.974Z,102469.03
2023-04-15T03:09:07.806Z,102471.56
2023-04-15T03:11:36.905Z,102479.44
2023-04-15T03:14:04.230Z,102484.75
2023-04-15T03:16:31.546Z,102477.69
2023-04-15T03:18:59.402Z,102478.56
2023-04-15T03:21:27.724Z,102488.16
2023-04-15T03:23:55.130Z,102485.63
2023-04-15T03:26:40.780Z,102491.69
2023-04-15T03:29:08.227Z,102498.69
2023-04-15T03:31:36.589Z,102493.38
2023-04-15T03:34:04.273Z,102500.34
2023-04-15T03:36:33.162Z,102508.22
2023-04-15T03:39:02.392Z,102500.28
2023-04-15T03:41:30.134Z,102503.66
2023-04-15T03:43:57.806Z,102506.28
2023-04-15T03:46:25.775Z,102514.13
2023-04-15T03:48:53.389Z,102513.13
2023-04-15T03:51:20.973Z,102514.00
2023-04-15T03:53:48.367Z,102512.09
2023-04-15T03:56:15.935Z,102509.41
2023-04-15T03:58:43.479Z,102512.00
2023-04-15T04:01:11.723Z,102508.50
2023-04-15T04:03:39.568Z,102504.97
2023-04-15T04:06:07.220Z,102506.59
2023-04-15T04:08:34.706Z,102516.13
2023-04-15T04:11:02.534Z,102509.88
2023-04-15T04:13:30.520Z,102506.41
2023-04-15T04:15:58.134Z,102505.53
2023-04-15T04:18:26.347Z,102513.31
2023-04-15T04:20:54.045Z,102505.38
2023-04-15T04:23:21.597Z,102510.56
2023-04-15T04:25:49.002Z,102517.41
2023-04-15T04:28:16.740Z,102511.28
2023-04-15T04:30:44.430Z,102514.72
2023-04-15T04:33:11.856Z,102512.91
2023-04-15T04:35:39.282Z,102514.59
2023-04-15T04:38:07.059Z,102512.69
2023-04-15T04:40:34.635Z,102511.66
2023-04-15T04:43:02.549Z,102515.94
2023-04-15T04:45:30.271Z,102512.47
2023-04-15T04:47:58.088Z,102515.84
2023-04-15T04:50:26.325Z,102512.31
2023-04-15T04:52:54.082Z,102511.19
2023-04-15T04:55:22.048Z,102513.81
2023-04-15T04:57:50.637Z,102526.78
2023-04-15T05:00:19.223Z,102516.19
2023-04-15T05:02:46.999Z,102520.50
2023-04-15T05:05:15.103Z,102525.50
2023-04-15T05:07:42.830Z,102521.75
2023-04-15T05:10:10.843Z,102526.63
2023-04-15T05:12:38.794Z,102530.97
2023-04-15T05:15:07.071Z,102515.94
2023-04-15T05:17:35.564Z,102520.94
2023-04-15T05:20:03.781Z,102520.63
2023-04-15T05:22:31.448Z,102517.94
2023-04-15T05:24:58.878Z,102523.53
2023-04-15T05:27:26.719Z,102511.97
2023-04-15T05:29:54.461Z,102519.19
2023-04-15T05:32:22.343Z,102512.09
2023-04-15T05:34:50.044Z,102524.47
2023-04-15T05:37:17.793Z,102521.59
2023-04-15T05:39:45.577Z,102528.09
2023-04-15T05:42:13.596Z,102523.72
2023-04-15T05:44:41.725Z,102525.59
2023-04-15T05:47:10.311Z,102524.66
2023-04-15T05:49:38.113Z,102531.38
2023-04-15T05:52:06.384Z,102525.31
2023-04-15T05:54:34.086Z,102523.41
2023-04-15T05:57:01.816Z,102526.00
2023-04-15T05:59:29.583Z,102517.34
2023-04-15T06:01:58.068Z,102525.19
2023-04-15T06:04:26.053Z,102522.03
2023-04-15T06:06:53.920Z,102525.09
2023-04-15T06:09:21.587Z,102534.72
2023-04-15T06:11:49.514Z,102529.06
2023-04-15T06:14:17.331Z,102527.66
2023-04-15T06:16:45.009Z,102532.09
2023-04-15T06:19:12.764Z,102531.91
2023-04-15T06:21:40.723Z,102528.91
2023-04-15T06:24:08.521Z,102538.13
2023-04-15T06:26:36.246Z,102537.19
2023-04-15T06:29:04.220Z,102532.31
2023-04-15T06:31:31.833Z,102541.78
2023-04-15T06:33:59.365Z,102540.75
2023-04-15T06:36:26.838Z,102541.78
2023-04-15T06:38:54.401Z,102541.06
2023-04-15T06:41:22.281Z,102540.50
2023-04-15T06:43:49.788Z,102532.66
2023-04-15T06:46:17.470Z,102539.47
2023-04-15T06:48:45.595Z,102533.75
2023-04-15T06:51:13.729Z,102533.59
2023-04-15T06:53:43.886Z,102534.91
2023-04-15T06:56:11.711Z,102533.31
2023-04-15T06:58:39.623Z,102536.16
2023-04-15T07:01:07.504Z,102538.44
2023-04-15T07:03:35.313Z,102535.75
2023-04-15T07:06:06.605Z,102536.81
2023-04-15T07:08:34.172Z,102535.88
2023-04-15T07:11:02.471Z,102535.41
2023-04-15T07:13:31.953Z,102532.25
2023-04-15T07:15:59.711Z,102532.34
2023-04-15T07:18:27.767Z,102538.47
2023-04-15T07:20:56.232Z,102551.94
2023-04-15T07:23:23.967Z,102541.97
2023-04-15T07:25:52.262Z,102541.69
2023-04-15T07:28:20.004Z,102546.28
2023-04-15T07:30:48.636Z,102538.31
2023-04-15T07:33:16.565Z,102535.31
2023-04-15T07:35:45.178Z,102548.84
2023-04-15T07:38:13.634Z,102540.53
2023-04-15T07:40:42.454Z,102543.88
2023-04-15T07:43:10.840Z,102549.44
2023-04-15T07:45:38.455Z,102555.22
2023-04-15T07:48:06.818Z,102543.84
2023-04-15T07:50:34.634Z,102541.53
2023-04-15T07:53:02.489Z,102547.34
2023-04-15T07:55:30.729Z,102543.34
2023-04-15T07:57:58.495Z,102540.47
2023-04-15T08:00:26.925Z,102547.22
2023-04-15T08:02:59.407Z,102543.53
2023-04-15T08:05:27.277Z,102540.38
2023-04-15T08:07:54.946Z,102546.16
2023-04-15T08:10:22.677Z,102541.13
2023-04-15T08:12:50.789Z,102538.38
2023-04-15T08:15:18.454Z,102539.13
2023-04-15T08:17:46.675Z,102542.31
2023-04-15T08:20:14.560Z,102541.88
2023-04-15T08:22:42.634Z,102548.25
2023-04-15T08:25:10.557Z,102546.25
2023-04-15T08:27:38.313Z,102538.38
2023-04-15T08:30:06.837Z,102548.78
2023-04-15T08:32:34.671Z,102540.06
2023-04-15T08:35:02.469Z,102538.72
2023-04-15T08:37:30.382Z,102546.94
2023-04-15T08:39:58.096Z,102540.78
2023-04-15T08:42:34.972Z,102537.41
2023-04-15T08:45:05.257Z,102543.66
2023-04-15T08:47:34.010Z,102541.78
2023-04-15T08:50:04.452Z,102544.44
2023-04-15T08:52:32.326Z,102536.97
2023-04-15T08:55:02.242Z,102538.84
2023-04-15T08:57:30.027Z,102536.22
2023-04-15T08:59:57.837Z,102534.44
2023-04-15T09:02:27.393Z,102539.84
2023-04-15T09:04:55.396Z,102537.56
2023-04-15T09:07:22.904Z,102537.19
2023-04-15T09:09:51.528Z,102538.19
2023-04-15T09:12:19.259Z,102534.69
2023-04-15T09:14:48.132Z,102533.63
2023-04-15T09:17:19.609Z,102533.53
2023-04-15T09:19:47.458Z,102530.50
2023-04-15T09:22:15.621Z,102532.97
2023-04-15T09:24:43.544Z,102534.13
2023-04-15T09:27:11.493Z,102535.50
2023-04-15T09:29:41.863Z,102530.81
2023-04-15T09:32:12.641Z,102528.09
2023-04-15T09:34:40.687Z,102539.16
2023-04-15T09:37:11.050Z,102530.13
2023-04-15T09:39:52.081Z,102530.34
2023-04-15T09:42:26.971Z,102527.53
2023-04-15T09:44:55.175Z,102528.91
2023-04-15T09:47:32.404Z,102530.47
2023-04-15T09:50:01.392Z,102542.91
2023-04-15T09:52:29.804Z,102525.31
2023-04-15T09:54:58.997Z,102518.72
2023-04-15T09:57:34.805Z,102521.94
2023-04-15T10:00:06.854Z,102519.34
2023-04-15T10:02:35.834Z,102521.88
2023-04-15T10:05:04.339Z,102518.34
2023-04-15T10:07:32.818Z,102514.63
2023-04-15T10:10:02.536Z,102515.50
2023-04-15T10:12:31.720Z,102525.19
2023-04-15T10:15:07.804Z,102521.66
2023-04-15T10:17:37.267Z,102514.59
2023-04-15T10:20:05.965Z,102506.00
2023-04-15T10:22:35.006Z,102519.25
2023-04-15T10:25:04.302Z,102524.19
2023-04-15T10:27:32.037Z,102508.00
2023-04-15T10:30:02.333Z,102514.69
2023-04-15T10:32:32.093Z,102527.06
2023-04-15T10:35:00.103Z,102519.16
2023-04-15T10:37:38.788Z,102521.47
2023-04-15T10:40:28.174Z,102516.88
2023-04-15T10:42:56.660Z,102516.28
2023-04-15T10:45:31.960Z,102507.97
2023-04-15T10:48:03.859Z,102507.38
2023-04-15T10:50:32.657Z,102511.91
2023-04-15T10:53:03.828Z,102516.56
2023-04-15T10:55:33.487Z,102520.13
2023-04-15T10:58:02.706Z,102508.09
2023-04-15T11:00:31.814Z,102520.41
2023-04-15T11:03:07.374Z,102503.88
2023-04-15T11:05:50.010Z,102521.81
2023-04-15T11:08:17.681Z,102512.06
2023-04-15T11:10:45.116Z,102507.47
2023-04-15T11:13:12.546Z,102498.69
2023-04-15T11:15:49.692Z,102511.75
2023-04-15T11:18:18.612Z,102497.47
2023-04-15T11:20:50.649Z,102506.63
2023-04-15T11:23:19.992Z,102497.63
2023-04-15T11:25:48.899Z,102511.66
2023-04-15T11:28:16.616Z,102505.50
2023-04-15T11:30:44.752Z,102515.56
2023-04-15T11:33:13.877Z,102506.88
2023-04-15T11:35:42.138Z,102507.59
2023-04-15T11:38:12.201Z,102506.97
2023-04-15T11:40:40.446Z,102500.38
2023-04-15T11:43:11.617Z,102509.47
2023-04-15T11:45:55.919Z,102500.44
2023-04-15T11:48:28.842Z,102500.28
2023-04-15T11:51:04.203Z,102492.97
2023-04-15T11:53:50.921Z,102500.06
2023-04-15T11:56:26.291Z,102500.44
2023-04-15T11:59:03.043Z,102499.19
2023-04-15T12:01:39.884Z,102495.19
2023-04-15T12:04:17.252Z,102487.22
2023-04-15T12:06:45.785Z,102496.66
2023-04-15T12:09:15.376Z,102484.75
2023-04-15T12:11:49.563Z,102481.44
2023-04-15T12:14:26.142Z,102490.38
2023-04-15T12:17:00.390Z,102479.91
2023-04-15T12:19:40.380Z,102474.44
2023-04-15T12:22:15.278Z,102477.03
2023-04-15T12:24:44.484Z,102474.84
2023-04-15T12:27:13.288Z,102474.84
2023-04-15T12:29:45.625Z,102482.25
2023-04-15T12:32:19.778Z,102469.59
2023-04-15T12:34:52.129Z,102479.75
2023-04-15T12:37:19.790Z,102470.88
2023-04-15T12:39:49.707Z,102469.09
2023-04-15T12:42:18.515Z,102477.97
2023-04-15T12:44:46.931Z,102478.84
2023-04-15T12:47:14.733Z,102477.09
2023-04-15T12:49:42.339Z,102480.84
2023-04-15T12:52:10.266Z,102471.25
2023-04-15T12:54:37.963Z,102480.69
2023-04-15T12:57:07.544Z,102486.59
2023-04-15T12:59:36.516Z,102483.88
2023-04-15T13:02:04.813Z,102480.38
2023-04-15T13:04:32.504Z,102485.28
2023-04-15T13:07:00.067Z,102482.38
2023-04-15T13:09:27.558Z,102485.69
2023-04-15T13:11:56.392Z,102487.38
2023-04-15T13:14:24.137Z,102493.59
2023-04-15T13:16:52.052Z,102500.41
2023-04-15T13:19:19.501Z,102501.66
2023-04-15T13:21:47.344Z,102500.06
2023-04-15T13:24:14.888Z,102499.78
2023-04-15T13:26:42.739Z,102492.00
2023-04-15T13:29:11.788Z,102500.13
2023-04-15T13:31:39.692Z,102496.13
2023-04-15T13:34:07.951Z,102492.28
2023-04-15T13:36:36.057Z,102493.75
2023-04-15T13:39:05.535Z,102488.19
2023-04-15T13:41:33.345Z,102489.72
2023-04-15T13:44:01.256Z,102496.47
2023-04-15T13:46:28.948Z,102486.13
2023-04-15T13:48:56.777Z,102495.84
2023-04-15T13:51:24.328Z,102487.56
2023-04-15T13:53:52.515Z,102489.63
2023-04-15T13:56:20.264Z,102497.16
2023-04-15T13:58:48.407Z,102487.72
2023-04-15T14:01:16.405Z,102492.81
2023-04-15T14:03:44.645Z,102486.13
2023-04-15T14:06:12.579Z,102485.53
2023-04-15T14:08:40.103Z,102490.97
2023-04-15T14:11:07.662Z,102484.22
2023-04-15T14:13:36.133Z,102489.78
2023-04-15T14:16:03.974Z,102492.63
2023-04-15T14:18:31.442Z,102485.22
2023-04-15T14:20:58.927Z,102485.63
2023-04-15T14:23:27.231Z,102483.75
2023-04-15T14:25:55.151Z,102479.47
2023-04-15T14:28:22.799Z,102489.03
2023-04-15T14:30:50.742Z,102484.53
2023-04-15T14:33:18.394Z,102487.16
2023-04-15T14:35:46.333Z,102488.19
2023-04-15T14:38:13.842Z,102494.28
2023-04-15T14:40:41.758Z,102485.69
2023-04-15T14:43:09.406Z,102487.69
2023-04-15T14:45:40.472Z,102493.47
2023-04-15T14:48:12.703Z,102497.56
2023-04-15T14:50:40.685Z,102490.91
2023-04-15T14:53:08.218Z,102492.56
2023-04-15T14:55:36.364Z,102495.38
2023-04-15T14:58:04.479Z,102500.63
2023-04-15T15:00:32.154Z,102500.41
2023-04-15T15:03:00.313Z,102508.72
2023-04-15T15:05:28.374Z,102487.44
2023-04-15T15:07:56.569Z,102496.13
2023-04-15T15:10:32.872Z,102493.28
2023-04-15T15:13:12.590Z,102490.78
2023-04-15T15:15:40.793Z,102493.78
2023-04-15T15:18:08.394Z,102490.09
2023-04-15T15:20:36.265Z,102489.59
2023-04-15T15:23:03.818Z,102481.78
2023-04-15T15:25:31.828Z,102493.00
2023-04-15T15:27:59.728Z,102492.47
2023-04-15T15:30:27.533Z,102489.97
2023-04-15T15:32:56.109Z,102497.13
2023-04-15T15:35:23.928Z,102494.59
2023-04-15T15:37:52.562Z,102492.19
2023-04-15T15:40:20.789Z,102493.34
2023-04-15T15:42:50.867Z,102496.69
2023-04-15T15:45:18.474Z,102489.78
2023-04-15T15:47:46.646Z,102496.13
2023-04-15T15:50:14.690Z,102498.84
2023-04-15T15:52:42.586Z,102504.25
2023-04-15T15:55:10.303Z,102498.94
2023-04-15T15:57:38.155Z,102498.13
2023-04-15T16:00:12.171Z,102502.69
2023-04-15T16:05:11.760Z,102517.88
2023-04-15T16:07:39.273Z,102517.38
2023-04-15T16:10:07.542Z,102518.47
2023-04-15T16:12:35.210Z,102520.00
2023-04-15T16:15:04.290Z,102518.22
2023-04-15T16:17:32.721Z,102517.50
2023-04-15T16:20:01.379Z,102521.56
2023-04-15T16:22:29.863Z,102514.78
2023-04-15T16:24:58.992Z,102525.56
2023-04-15T16:27:27.079Z,102527.25
2023-04-15T16:29:54.548Z,102538.97
2023-04-15T16:32:22.516Z,102527.25
2023-04-15T16:34:50.397Z,102520.16
2023-04-15T16:37:18.162Z,102523.63
2023-04-15T16:39:46.110Z,102520.19
2023-04-15T16:42:13.920Z,102525.56
2023-04-15T16:44:41.663Z,102528.09
2023-04-15T16:47:11.965Z,102524.50
2023-04-15T16:49:39.443Z,102530.59
2023-04-15T16:52:07.869Z,102528.91
2023-04-15T16:54:40.609Z,102536.84
2023-04-15T16:57:08.825Z,102526.94
2023-04-15T16:59:37.848Z,102536.75
2023-04-15T17:02:05.859Z,102536.06
2023-04-15T17:04:34.950Z,102545.88
2023-04-15T17:07:02.872Z,102544.22
2023-04-15T17:09:30.709Z,102546.91
2023-04-15T17:11:58.692Z,102545.25
2023-04-15T17:14:28.626Z,102546.19
2023-04-15T17:16:56.253Z,102550.00
2023-04-15T17:19:23.837Z,102550.56
2023-04-15T17:21:54.260Z,102554.41
2023-04-15T17:24:22.629Z,102555.28
2023-04-15T17:26:50.625Z,102553.91
2023-04-15T17:29:18.359Z,102556.72
2023-04-15T17:31:46.147Z,102563.59
2023-04-15T17:34:15.798Z,102557.53
2023-04-15T17:36:43.851Z,102558.66
2023-04-15T17:39:11.999Z,102559.84
2023-04-15T17:41:40.082Z,102560.13
2023-04-15T17:44:07.764Z,102568.63
2023-04-15T17:46:35.756Z,102563.59
2023-04-15T17:49:06.099Z,102567.69
2023-04-15T17:51:39.867Z,102565.84
2023-04-15T17:54:07.792Z,102568.56
2023-04-15T17:56:35.418Z,102571.25
2023-04-15T17:59:03.555Z,102566.16
2023-04-15T18:01:31.268Z,102568.97
2023-04-15T18:03:59.803Z,102578.50
2023-04-15T18:06:27.617Z,102575.41
2023-04-15T18:08:55.175Z,102573.47
2023-04-15T18:11:22.887Z,102580.69
2023-04-15T18:13:50.513Z,102573.00
2023-04-15T18:16:18.375Z,102569.69
2023-04-15T18:18:46.033Z,102575.75
2023-04-15T18:21:13.974Z,102579.31
2023-04-15T18:23:42.306Z,102579.44
2023-04-15T18:26:10.152Z,102581.25
2023-04-15T18:28:39.852Z,102583.13
2023-04-15T18:31:07.769Z,102588.94
2023-04-15T18:33:35.872Z,102585.19
2023-04-15T18:36:03.761Z,102583.44
2023-04-15T18:38:31.871Z,102586.22
2023-04-15T18:40:59.628Z,102595.22
2023-04-15T18:43:27.781Z,102592.84
2023-04-15T18:45:55.920Z,102593.91
2023-04-15T18:48:26.092Z,102592.09
2023-04-15T18:50:54.253Z,102593.94
2023-04-15T18:53:21.844Z,102592.41
2023-04-15T18:55:49.682Z,102587.44
2023-04-15T18:58:19.261Z,102593.88
2023-04-15T19:00:47.447Z,102593.75
2023-04-15T19:03:15.697Z,102601.25
2023-04-15T19:05:43.501Z,102598.75
2023-04-15T19:08:11.945Z,102593.41
2023-04-15T19:10:39.702Z,102605.94
2023-04-15T19:13:07.670Z,102611.34
2023-04-15T19:15:35.504Z,102600.78
2023-04-15T19:18:05.342Z,102602.72
2023-04-15T19:20:36.198Z,102599.34
2023-04-15T19:23:06.171Z,102598.81
2023-04-15T19:25:34.213Z,102593.38
2023-04-15T19:28:03.415Z,102590.19
2023-04-15T19:30:33.006Z,102589.31
2023-04-15T19:33:00.887Z,102599.09
2023-04-15T19:35:29.466Z,102601.72
2023-04-15T19:37:59.134Z,102591.34
2023-04-15T19:40:26.907Z,102597.59
2023-04-15T19:42:54.874Z,102596.94
2023-04-15T19:45:23.145Z,102603.09
2023-04-15T19:47:52.192Z,102595.34
2023-04-15T19:50:24.685Z,102600.63
2023-04-15T19:52:53.223Z,102597.97
2023-04-15T19:55:21.907Z,102608.44
2023-04-15T19:57:49.981Z,102596.00
2023-04-15T20:00:17.557Z,102597.41
2023-04-15T20:02:45.564Z,102599.28
2023-04-15T20:05:13.989Z,102586.28
2023-04-15T20:07:42.746Z,102596.88
2023-04-15T20:10:13.233Z,102596.91
2023-04-15T20:12:50.466Z,102598.53
2023-04-15T20:15:23.734Z,102592.69
2023-04-15T20:17:51.779Z,102596.34
2023-04-15T20:20:20.081Z,102590.31
2023-04-15T20:22:47.964Z,102590.66
2023-04-15T20:25:15.853Z,102591.84
2023-04-15T20:27:44.128Z,102588.25
2023-04-15T20:30:11.910Z,102588.13
2023-04-15T20:32:39.707Z,102577.72
2023-04-15T20:35:07.752Z,102582.56
2023-04-15T20:37:37.571Z,102580.34
2023-04-15T20:40:05.985Z,102583.09
2023-04-15T20:42:36.803Z,102576.13
2023-04-15T20:45:07.035Z,102580.59
2023-04-15T20:47:35.118Z,102585.22
2023-04-15T20:50:02.912Z,102583.34
2023-04-15T20:52:31.844Z,102584.25
2023-04-15T20:54:59.301Z,102581.00
2023-04-15T20:57:27.328Z,102587.75
2023-04-15T20:59:55.193Z,102585.31
2023-04-15T21:02:24.200Z,102583.84
2023-04-15T21:04:52.147Z,102584.84
2023-04-15T21:07:20.033Z,102586.94
2023-04-15T21:09:47.838Z,102583.09
2023-04-15T21:12:15.641Z,102584.91
2023-04-15T21:14:43.478Z,102582.16
2023-04-15T21:17:11.566Z,102581.28
2023-04-15T21:19:40.361Z,102585.09
2023-04-15T21:22:08.467Z,102579.06
2023-04-15T21:24:36.272Z,102573.78
2023-04-15T21:27:04.058Z,102576.31
2023-04-15T21:29:31.793Z,102579.84
2023-04-15T21:32:00.121Z,102582.63
2023-04-15T21:34:27.736Z,102581.81
2023-04-15T21:36:55.407Z,102578.53
2023-04-15T21:39:22.890Z,102575.25
2023-04-15T21:41:50.822Z,102575.47
2023-04-15T21:44:18.548Z,102571.81
2023-04-15T21:46:46.370Z,102577.09
2023-04-15T21:49:14.273Z,102578.13
2023-04-15T21:51:41.984Z,102582.53
2023-04-15T21:54:09.439Z,102582.50
2023-04-15T21:56:37.928Z,102584.09
2023-04-15T21:59:05.595Z,102575.88
2023-04-15T22:01:33.378Z,102580.00
2023-04-15T22:04:01.682Z,102581.97
2023-04-15T22:06:29.592Z,102581.97
2023-04-15T22:08:57.968Z,102578.25
2023-04-15T22:11:30.444Z,102583.84
2023-04-15T22:13:59.391Z,102581.06
2023-04-15T22:16:27.158Z,102580.53
2023-04-15T22:18:55.357Z,102590.78
2023-04-15T22:21:23.174Z,102584.66
2023-04-15T22:23:51.463Z,102586.47
2023-04-15T22:26:18.990Z,102587.47
2023-04-15T22:28:46.533Z,102582.91
2023-04-15T22:31:14.988Z,102582.19
2023-04-15T22:33:42.781Z,102577.94
2023-04-15T22:36:10.697Z,102573.53
2023-04-15T22:38:38.463Z,102585.09
2023-04-15T22:41:06.674Z,102583.22
2023-04-15T22:43:34.108Z,102583.06
2023-04-15T22:46:01.942Z,102589.38
2023-04-15T22:48:29.790Z,102582.56
2023-04-15T22:50:57.303Z,102586.84
2023-04-15T22:53:24.977Z,102577.94
2023-04-15T22:55:53.999Z,102581.47
2023-04-15T22:58:21.555Z,102584.34
2023-04-15T23:00:49.716Z,102593.06
2023-04-15T23:03:17.682Z,102583.47
2023-04-15T23:05:46.214Z,102584.53
2023-04-15T23:08:13.947Z,102582.88
2023-04-15T23:10:41.784Z,102579.59
2023-04-15T23:13:09.506Z,102577.72
2023-04-15T23:15:37.124Z,102577.81
2023-04-15T23:18:05.239Z,102582.34
2023-04-15T23:20:33.240Z,102583.84
2023-04-15T23:23:01.048Z,102579.78
2023-04-15T23:25:28.814Z,102584.97
2023-04-15T23:27:56.522Z,102576.13
2023-04-15T23:30:24.264Z,102571.00
2023-04-15T23:32:51.755Z,102575.41
2023-04-15T23:35:19.587Z,102584.31
2023-04-15T23:37:47.177Z,102578.31
2023-04-15T23:40:15.668Z,102567.78
2023-04-15T23:42:43.589Z,102578.38
2023-04-15T23:45:12.246Z,102572.38
2023-04-15T23:47:40.105Z,102578.59
2023-04-15T23:50:08.433Z,102579.47
2023-04-15T23:52:36.458Z,102576.94
2023-04-15T23:55:04.409Z,102581.22
2023-04-15T23:57:32.207Z,102584.72
